sensor_id;sensor_type;location;lat;lon;timestamp;temperature;humidity
22503;DHT22;11418;48.118;9.992;2023-07-20T00:03:13;17.20;99.90
22503;DHT22;11418;48.118;9.992;2023-07-20T00:07:16;17.30;99.90
22503;DHT22;11418;48.118;9.992;2023-07-20T00:11:17;17.40;99.90
22503;DHT22;11418;48.118;9.992;2023-07-20T00:15:18;17.40;99.90
22503;DHT22;11418;48.118;9.992;2023-07-20T00:19:18;17.60;99.90
22503;DHT22;11418;48.118;9.992;2023-07-20T00:23:19;17.60;99.90
22503;DHT22;11418;48.118;9.992;2023-07-20T00:27:23;17.80;99.90
22503;DHT22;11418;48.118;9.992;2023-07-20T00:31:23;18.10;99.90
22503;DHT22;11418;48.118;9.992;2023-07-20T00:35:24;18.40;99.90
22503;DHT22;11418;48.118;9.992;2023-07-20T00:39:24;18.40;99.90
22503;DHT22;11418;48.118;9.992;2023-07-20T00:43:25;18.10;99.90
22503;DHT22;11418;48.118;9.992;2023-07-20T00:47:26;18.10;99.90
22503;DHT22;11418;48.118;9.992;2023-07-20T00:51:27;18.30;99.90
22503;DHT22;11418;48.118;9.992;2023-07-20T00:55:28;18.20;99.90
22503;DHT22;11418;48.118;9.992;2023-07-20T00:59:29;18.40;99.90
22503;DHT22;11418;48.118;9.992;2023-07-20T01:03:30;18.70;99.90
22503;DHT22;11418;48.118;9.992;2023-07-20T01:07:46;18.60;99.90
22503;DHT22;11418;48.118;9.992;2023-07-20T01:12:22;18.50;99.90
22503;DHT22;11418;48.118;9.992;2023-07-20T01:16:27;18.70;99.90
22503;DHT22;11418;48.118;9.992;2023-07-20T01:20:28;18.60;99.90
22503;DHT22;11418;48.118;9.992;2023-07-20T01:33:06;18.60;99.90
22503;DHT22;11418;48.118;9.992;2023-07-20T01:37:08;18.60;99.90
22503;DHT22;11418;48.118;9.992;2023-07-20T01:41:10;18.60;99.90
22503;DHT22;11418;48.118;9.992;2023-07-20T01:45:11;18.60;99.90
22503;DHT22;11418;48.118;9.992;2023-07-20T01:49:11;18.60;99.90
22503;DHT22;11418;48.118;9.992;2023-07-20T01:53:12;18.50;99.90
22503;DHT22;11418;48.118;9.992;2023-07-20T01:57:13;18.60;99.90
22503;DHT22;11418;48.118;9.992;2023-07-20T02:01:13;18.40;99.90
22503;DHT22;11418;48.118;9.992;2023-07-20T02:05:14;18.40;99.90
22503;DHT22;11418;48.118;9.992;2023-07-20T02:09:14;18.40;99.90
22503;DHT22;11418;48.118;9.992;2023-07-20T02:13:15;18.20;99.90
22503;DHT22;11418;48.118;9.992;2023-07-20T02:17:16;18.40;99.90
22503;DHT22;11418;48.118;9.992;2023-07-20T02:21:16;18.20;99.90
22503;DHT22;11418;48.118;9.992;2023-07-20T02:25:17;17.90;99.90
22503;DHT22;11418;48.118;9.992;2023-07-20T02:29:17;17.70;99.90
22503;DHT22;11418;48.118;9.992;2023-07-20T02:33:18;17.70;99.90
22503;DHT22;11418;48.118;9.992;2023-07-20T02:37:18;17.60;99.90
22503;DHT22;11418;48.118;9.992;2023-07-20T02:41:19;17.70;99.90
22503;DHT22;11418;48.118;9.992;2023-07-20T02:45:19;17.80;99.90
22503;DHT22;11418;48.118;9.992;2023-07-20T02:49:20;17.40;99.90
22503;DHT22;11418;48.118;9.992;2023-07-20T02:53:20;17.20;99.90
22503;DHT22;11418;48.118;9.992;2023-07-20T02:57:21;17.20;99.90
22503;DHT22;11418;48.118;9.992;2023-07-20T03:01:21;17.00;99.90
22503;DHT22;11418;48.118;9.992;2023-07-20T03:05:23;17.00;99.90
22503;DHT22;11418;48.118;9.992;2023-07-20T03:09:28;17.00;99.90
22503;DHT22;11418;48.118;9.992;2023-07-20T03:13:29;17.00;99.90
22503;DHT22;11418;48.118;9.992;2023-07-20T03:17:30;17.00;99.90
22503;DHT22;11418;48.118;9.992;2023-07-20T03:21:30;17.10;99.90
22503;DHT22;11418;48.118;9.992;2023-07-20T03:25:31;17.10;99.90
22503;DHT22;11418;48.118;9.992;2023-07-20T03:29:32;17.30;99.90
22503;DHT22;11418;48.118;9.992;2023-07-20T03:33:34;17.30;99.90
22503;DHT22;11418;48.118;9.992;2023-07-20T03:37:35;17.30;99.90
22503;DHT22;11418;48.118;9.992;2023-07-20T03:41:36;17.20;99.90
22503;DHT22;11418;48.118;9.992;2023-07-20T03:45:37;17.50;99.90
22503;DHT22;11418;48.118;9.992;2023-07-20T03:49:37;17.30;99.90
22503;DHT22;11418;48.118;9.992;2023-07-20T03:53:38;16.70;99.90
22503;DHT22;11418;48.118;9.992;2023-07-20T03:57:39;16.50;99.90
22503;DHT22;11418;48.118;9.992;2023-07-20T04:01:39;16.30;99.90
22503;DHT22;11418;48.118;9.992;2023-07-20T04:05:40;16.30;99.90
22503;DHT22;11418;48.118;9.992;2023-07-20T04:09:41;16.40;99.90
22503;DHT22;11418;48.118;9.992;2023-07-20T04:13:41;16.20;99.90
22503;DHT22;11418;48.118;9.992;2023-07-20T04:17:42;16.00;99.90
22503;DHT22;11418;48.118;9.992;2023-07-20T04:21:42;15.90;99.90
22503;DHT22;11418;48.118;9.992;2023-07-20T04:25:44;16.10;99.90
22503;DHT22;11418;48.118;9.992;2023-07-20T04:29:44;16.30;99.90
22503;DHT22;11418;48.118;9.992;2023-07-20T04:33:45;17.00;99.90
22503;DHT22;11418;48.118;9.992;2023-07-20T04:37:45;18.00;99.90
22503;DHT22;11418;48.118;9.992;2023-07-20T04:41:46;18.40;99.90
22503;DHT22;11418;48.118;9.992;2023-07-20T04:45:47;18.90;99.90
22503;DHT22;11418;48.118;9.992;2023-07-20T04:49:47;19.10;99.90
22503;DHT22;11418;48.118;9.992;2023-07-20T04:53:49;18.90;99.90
22503;DHT22;11418;48.118;9.992;2023-07-20T04:57:49;19.10;99.90
22503;DHT22;11418;48.118;9.992;2023-07-20T05:01:50;18.90;99.90
22503;DHT22;11418;48.118;9.992;2023-07-20T05:05:50;18.60;99.90
22503;DHT22;11418;48.118;9.992;2023-07-20T05:09:51;18.90;99.90
22503;DHT22;11418;48.118;9.992;2023-07-20T05:13:51;19.40;99.90
22503;DHT22;11418;48.118;9.992;2023-07-20T05:17:52;19.40;99.90
22503;DHT22;11418;48.118;9.992;2023-07-20T05:21:52;19.40;99.90
22503;DHT22;11418;48.118;9.992;2023-07-20T05:25:57;19.50;99.90
22503;DHT22;11418;48.118;9.992;2023-07-20T05:29:58;19.50;99.90
22503;DHT22;11418;48.118;9.992;2023-07-20T05:33:59;19.70;99.90
22503;DHT22;11418;48.118;9.992;2023-07-20T05:37:59;19.60;99.90
22503;DHT22;11418;48.118;9.992;2023-07-20T05:42:00;19.50;99.90
22503;DHT22;11418;48.118;9.992;2023-07-20T05:46:00;19.40;99.90
22503;DHT22;11418;48.118;9.992;2023-07-20T05:50:01;19.30;99.90
22503;DHT22;11418;48.118;9.992;2023-07-20T05:54:01;19.90;99.90
22503;DHT22;11418;48.118;9.992;2023-07-20T05:58:02;20.60;99.90
22503;DHT22;11418;48.118;9.992;2023-07-20T06:02:04;20.90;99.90
22503;DHT22;11418;48.118;9.992;2023-07-20T06:06:05;21.90;99.90
22503;DHT22;11418;48.118;9.992;2023-07-20T06:10:07;22.30;99.90
22503;DHT22;11418;48.118;9.992;2023-07-20T06:14:07;21.70;99.90
22503;DHT22;11418;48.118;9.992;2023-07-20T06:18:08;21.60;99.90
22503;DHT22;11418;48.118;9.992;2023-07-20T06:22:08;21.50;99.90
22503;DHT22;11418;48.118;9.992;2023-07-20T06:26:09;20.90;99.90
22503;DHT22;11418;48.118;9.992;2023-07-20T06:30:10;20.80;99.90
22503;DHT22;11418;48.118;9.992;2023-07-20T06:34:10;20.50;99.90
22503;DHT22;11418;48.118;9.992;2023-07-20T06:38:11;20.20;99.90
22503;DHT22;11418;48.118;9.992;2023-07-20T06:42:12;19.80;99.90
22503;DHT22;11418;48.118;9.992;2023-07-20T06:46:12;19.70;99.90
22503;DHT22;11418;48.118;9.992;2023-07-20T06:50:13;19.90;99.90
22503;DHT22;11418;48.118;9.992;2023-07-20T06:54:14;20.20;99.90
22503;DHT22;11418;48.118;9.992;2023-07-20T06:58:14;20.30;99.90
22503;DHT22;11418;48.118;9.992;2023-07-20T07:02:15;20.50;99.90
22503;DHT22;11418;48.118;9.992;2023-07-20T07:06:16;20.90;99.90
22503;DHT22;11418;48.118;9.992;2023-07-20T07:10:16;21.30;99.90
22503;DHT22;11418;48.118;9.992;2023-07-20T07:14:17;21.40;99.90
22503;DHT22;11418;48.118;9.992;2023-07-20T07:18:18;21.50;99.90
22503;DHT22;11418;48.118;9.992;2023-07-20T07:22:20;21.40;99.90
22503;DHT22;11418;48.118;9.992;2023-07-20T07:26:24;21.80;99.90
22503;DHT22;11418;48.118;9.992;2023-07-20T07:30:24;22.50;99.90
22503;DHT22;11418;48.118;9.992;2023-07-20T07:34:25;23.20;99.90
22503;DHT22;11418;48.118;9.992;2023-07-20T07:38:26;23.50;99.90
22503;DHT22;11418;48.118;9.992;2023-07-20T07:42:29;24.10;99.90
22503;DHT22;11418;48.118;9.992;2023-07-20T07:46:29;23.70;99.90
22503;DHT22;11418;48.118;9.992;2023-07-20T07:50:30;24.10;99.90
22503;DHT22;11418;48.118;9.992;2023-07-20T07:54:30;23.90;99.90
22503;DHT22;11418;48.118;9.992;2023-07-20T07:58:31;24.10;99.90
22503;DHT22;11418;48.118;9.992;2023-07-20T08:02:31;23.90;99.90
22503;DHT22;11418;48.118;9.992;2023-07-20T08:06:32;23.70;99.90
22503;DHT22;11418;48.118;9.992;2023-07-20T08:10:32;24.00;99.90
22503;DHT22;11418;48.118;9.992;2023-07-20T08:14:33;24.10;99.90
22503;DHT22;11418;48.118;9.992;2023-07-20T08:18:34;23.80;99.90
22503;DHT22;11418;48.118;9.992;2023-07-20T08:22:34;23.90;99.90
22503;DHT22;11418;48.118;9.992;2023-07-20T08:26:35;24.10;99.90
22503;DHT22;11418;48.118;9.992;2023-07-20T08:30:46;23.70;99.90
22503;DHT22;11418;48.118;9.992;2023-07-20T08:34:47;24.40;99.90
22503;DHT22;11418;48.118;9.992;2023-07-20T08:38:47;24.40;99.90
22503;DHT22;11418;48.118;9.992;2023-07-20T08:42:49;24.30;99.90
22503;DHT22;11418;48.118;9.992;2023-07-20T08:46:51;25.20;99.60
22503;DHT22;11418;48.118;9.992;2023-07-20T08:50:52;25.50;97.40
22503;DHT22;11418;48.118;9.992;2023-07-20T08:54:54;25.70;99.40
22503;DHT22;11418;48.118;9.992;2023-07-20T08:58:54;26.40;99.90
22503;DHT22;11418;48.118;9.992;2023-07-20T09:02:55;26.80;94.90
22503;DHT22;11418;48.118;9.992;2023-07-20T09:06:57;25.80;97.00
22503;DHT22;11418;48.118;9.992;2023-07-20T09:10:58;25.70;94.20
22503;DHT22;11418;48.118;9.992;2023-07-20T09:14:59;25.30;96.00
22503;DHT22;11418;48.118;9.992;2023-07-20T09:19:00;25.00;97.70
22503;DHT22;11418;48.118;9.992;2023-07-20T09:23:04;24.40;99.90
22503;DHT22;11418;48.118;9.992;2023-07-20T09:27:06;24.90;99.30
22503;DHT22;11418;48.118;9.992;2023-07-20T09:31:18;25.80;96.60
22503;DHT22;11418;48.118;9.992;2023-07-20T09:35:21;24.60;98.20
22503;DHT22;11418;48.118;9.992;2023-07-20T09:39:22;23.50;99.20
22503;DHT22;11418;48.118;9.992;2023-07-20T09:43:23;24.00;99.80
22503;DHT22;11418;48.118;9.992;2023-07-20T09:47:24;23.50;99.90
22503;DHT22;11418;48.118;9.992;2023-07-20T09:51:25;23.40;99.90
22503;DHT22;11418;48.118;9.992;2023-07-20T09:55:26;24.40;99.90
22503;DHT22;11418;48.118;9.992;2023-07-20T09:59:26;25.30;98.60
22503;DHT22;11418;48.118;9.992;2023-07-20T10:03:29;25.40;99.10
22503;DHT22;11418;48.118;9.992;2023-07-20T10:07:30;25.90;97.50
22503;DHT22;11418;48.118;9.992;2023-07-20T10:11:35;25.70;99.90
22503;DHT22;11418;48.118;9.992;2023-07-20T10:15:41;26.10;95.40
22503;DHT22;11418;48.118;9.992;2023-07-20T10:19:47;26.80;95.90
22503;DHT22;11418;48.118;9.992;2023-07-20T10:23:48;26.30;97.70
22503;DHT22;11418;48.118;9.992;2023-07-20T10:27:49;25.90;97.60
22503;DHT22;11418;48.118;9.992;2023-07-20T10:31:50;26.30;97.50
22503;DHT22;11418;48.118;9.992;2023-07-20T10:35:57;26.70;97.40
22503;DHT22;11418;48.118;9.992;2023-07-20T10:40:23;26.50;93.50
22503;DHT22;11418;48.118;9.992;2023-07-20T10:44:24;26.40;95.70
22503;DHT22;11418;48.118;9.992;2023-07-20T10:48:25;26.90;93.90
22503;DHT22;11418;48.118;9.992;2023-07-20T10:52:25;26.10;97.50
22503;DHT22;11418;48.118;9.992;2023-07-20T10:56:27;25.80;95.40
22503;DHT22;11418;48.118;9.992;2023-07-20T11:00:30;24.40;98.10
22503;DHT22;11418;48.118;9.992;2023-07-20T11:04:41;25.40;98.40
22503;DHT22;11418;48.118;9.992;2023-07-20T11:08:42;26.90;94.20
22503;DHT22;11418;48.118;9.992;2023-07-20T11:13:22;28.60;92.80
22503;DHT22;11418;48.118;9.992;2023-07-20T11:17:30;28.60;91.10
22503;DHT22;11418;48.118;9.992;2023-07-20T11:21:38;27.40;90.90
22503;DHT22;11418;48.118;9.992;2023-07-20T11:25:39;26.10;93.10
22503;DHT22;11418;48.118;9.992;2023-07-20T11:29:40;26.60;92.90
22503;DHT22;11418;48.118;9.992;2023-07-20T11:33:41;27.30;92.20
22503;DHT22;11418;48.118;9.992;2023-07-20T11:37:42;26.00;93.10
22503;DHT22;11418;48.118;9.992;2023-07-20T11:41:54;25.70;93.90
22503;DHT22;11418;48.118;9.992;2023-07-20T11:45:55;25.50;94.10
22503;DHT22;11418;48.118;9.992;2023-07-20T11:50:03;26.00;95.50
22503;DHT22;11418;48.118;9.992;2023-07-20T11:54:05;27.00;97.00
22503;DHT22;11418;48.118;9.992;2023-07-20T11:58:08;27.10;95.40
22503;DHT22;11418;48.118;9.992;2023-07-20T12:02:09;28.60;90.10
22503;DHT22;11418;48.118;9.992;2023-07-20T12:06:10;28.00;90.00
22503;DHT22;11418;48.118;9.992;2023-07-20T12:10:12;26.40;92.20
22503;DHT22;11418;48.118;9.992;2023-07-20T12:14:12;25.40;95.20
22503;DHT22;11418;48.118;9.992;2023-07-20T12:18:13;26.00;91.80
22503;DHT22;11418;48.118;9.992;2023-07-20T12:22:13;26.70;94.00
22503;DHT22;11418;48.118;9.992;2023-07-20T12:26:14;27.70;91.80
22503;DHT22;11418;48.118;9.992;2023-07-20T12:30:15;29.70;90.50
22503;DHT22;11418;48.118;9.992;2023-07-20T12:34:16;29.00;91.30
22503;DHT22;11418;48.118;9.992;2023-07-20T12:38:16;30.20;81.60
22503;DHT22;11418;48.118;9.992;2023-07-20T12:42:17;29.30;84.20
22503;DHT22;11418;48.118;9.992;2023-07-20T12:46:17;28.70;90.50
22503;DHT22;11418;48.118;9.992;2023-07-20T12:50:18;30.80;78.20
22503;DHT22;11418;48.118;9.992;2023-07-20T12:54:19;31.40;75.50
22503;DHT22;11418;48.118;9.992;2023-07-20T12:58:19;31.80;78.40
22503;DHT22;11418;48.118;9.992;2023-07-20T13:02:20;31.50;73.70
22503;DHT22;11418;48.118;9.992;2023-07-20T13:06:20;31.30;79.10
22503;DHT22;11418;48.118;9.992;2023-07-20T13:10:22;32.30;73.10
22503;DHT22;11418;48.118;9.992;2023-07-20T13:14:22;33.80;67.40
22503;DHT22;11418;48.118;9.992;2023-07-20T13:18:23;31.20;73.60
22503;DHT22;11418;48.118;9.992;2023-07-20T13:22:23;30.10;72.10
22503;DHT22;11418;48.118;9.992;2023-07-20T13:26:24;29.40;80.20
22503;DHT22;11418;48.118;9.992;2023-07-20T13:30:25;31.80;75.10
22503;DHT22;11418;48.118;9.992;2023-07-20T13:34:26;34.30;67.30
22503;DHT22;11418;48.118;9.992;2023-07-20T13:38:26;31.80;70.90
22503;DHT22;11418;48.118;9.992;2023-07-20T13:42:27;29.50;73.00
22503;DHT22;11418;48.118;9.992;2023-07-20T13:46:27;29.30;73.30
22503;DHT22;11418;48.118;9.992;2023-07-20T13:50:28;28.80;79.80
22503;DHT22;11418;48.118;9.992;2023-07-20T13:54:28;28.70;78.10
22503;DHT22;11418;48.118;9.992;2023-07-20T13:58:29;29.80;78.90
22503;DHT22;11418;48.118;9.992;2023-07-20T14:02:30;28.60;76.60
22503;DHT22;11418;48.118;9.992;2023-07-20T14:06:31;30.60;72.60
22503;DHT22;11418;48.118;9.992;2023-07-20T14:10:32;32.50;66.30
22503;DHT22;11418;48.118;9.992;2023-07-20T14:14:33;31.40;64.20
22503;DHT22;11418;48.118;9.992;2023-07-20T14:18:34;29.60;72.10
22503;DHT22;11418;48.118;9.992;2023-07-20T14:22:34;30.10;70.20
22503;DHT22;11418;48.118;9.992;2023-07-20T14:26:35;29.30;70.10
22503;DHT22;11418;48.118;9.992;2023-07-20T14:30:35;30.90;71.90
22503;DHT22;11418;48.118;9.992;2023-07-20T14:34:36;32.10;66.70
22503;DHT22;11418;48.118;9.992;2023-07-20T14:38:36;34.30;60.30
22503;DHT22;11418;48.118;9.992;2023-07-20T14:42:37;36.10;55.60
22503;DHT22;11418;48.118;9.992;2023-07-20T14:46:38;37.50;55.40
22503;DHT22;11418;48.118;9.992;2023-07-20T14:50:38;35.10;56.30
22503;DHT22;11418;48.118;9.992;2023-07-20T14:54:39;34.20;57.60
22503;DHT22;11418;48.118;9.992;2023-07-20T14:58:40;33.60;57.60
22503;DHT22;11418;48.118;9.992;2023-07-20T15:02:40;30.90;61.90
22503;DHT22;11418;48.118;9.992;2023-07-20T15:06:41;29.50;67.70
22503;DHT22;11418;48.118;9.992;2023-07-20T15:10:41;29.70;66.10
22503;DHT22;11418;48.118;9.992;2023-07-20T15:14:43;29.50;68.00
22503;DHT22;11418;48.118;9.992;2023-07-20T15:18:47;28.60;69.00
22503;DHT22;11418;48.118;9.992;2023-07-20T15:22:48;29.90;66.90
22503;DHT22;11418;48.118;9.992;2023-07-20T15:26:48;32.40;58.50
22503;DHT22;11418;48.118;9.992;2023-07-20T15:30:49;33.00;61.20
22503;DHT22;11418;48.118;9.992;2023-07-20T15:34:50;32.90;57.10
22503;DHT22;11418;48.118;9.992;2023-07-20T15:38:50;31.80;60.70
22503;DHT22;11418;48.118;9.992;2023-07-20T15:42:51;32.00;58.30
22503;DHT22;11418;48.118;9.992;2023-07-20T15:46:52;32.50;58.80
22503;DHT22;11418;48.118;9.992;2023-07-20T15:50:52;30.70;62.50
22503;DHT22;11418;48.118;9.992;2023-07-20T15:54:53;28.80;70.10
22503;DHT22;11418;48.118;9.992;2023-07-20T15:58:53;27.70;69.30
22503;DHT22;11418;48.118;9.992;2023-07-20T16:02:54;26.50;70.30
22503;DHT22;11418;48.118;9.992;2023-07-20T16:06:56;25.90;73.80
22503;DHT22;11418;48.118;9.992;2023-07-20T16:10:56;25.90;70.90
22503;DHT22;11418;48.118;9.992;2023-07-20T16:14:57;26.20;78.00
22503;DHT22;11418;48.118;9.992;2023-07-20T16:18:58;26.50;76.10
22503;DHT22;11418;48.118;9.992;2023-07-20T16:22:59;26.60;74.30
22503;DHT22;11418;48.118;9.992;2023-07-20T16:26:59;26.80;72.20
22503;DHT22;11418;48.118;9.992;2023-07-20T16:31:00;26.90;69.70
22503;DHT22;11418;48.118;9.992;2023-07-20T16:35:00;26.80;77.10
22503;DHT22;11418;48.118;9.992;2023-07-20T16:39:01;26.70;77.80
22503;DHT22;11418;48.118;9.992;2023-07-20T16:43:03;26.40;75.20
22503;DHT22;11418;48.118;9.992;2023-07-20T16:47:04;25.50;74.40
22503;DHT22;11418;48.118;9.992;2023-07-20T16:51:05;25.50;82.00
22503;DHT22;11418;48.118;9.992;2023-07-20T16:55:06;25.40;78.60
22503;DHT22;11418;48.118;9.992;2023-07-20T16:59:06;25.30;83.10
22503;DHT22;11418;48.118;9.992;2023-07-20T17:03:07;25.00;86.50
22503;DHT22;11418;48.118;9.992;2023-07-20T17:07:08;24.80;89.30
22503;DHT22;11418;48.118;9.992;2023-07-20T17:11:09;24.50;88.60
22503;DHT22;11418;48.118;9.992;2023-07-20T17:15:09;24.30;91.10
22503;DHT22;11418;48.118;9.992;2023-07-20T17:19:10;24.20;91.30
22503;DHT22;11418;48.118;9.992;2023-07-20T17:23:11;23.90;91.60
22503;DHT22;11418;48.118;9.992;2023-07-20T17:27:11;23.90;91.10
22503;DHT22;11418;48.118;9.992;2023-07-20T17:31:12;23.70;94.50
22503;DHT22;11418;48.118;9.992;2023-07-20T17:35:13;23.50;94.90
22503;DHT22;11418;48.118;9.992;2023-07-20T17:39:13;23.30;95.60
22503;DHT22;11418;48.118;9.992;2023-07-20T17:43:14;23.30;98.90
22503;DHT22;11418;48.118;9.992;2023-07-20T17:47:15;23.50;99.00
22503;DHT22;11418;48.118;9.992;2023-07-20T17:51:16;23.30;96.90
22503;DHT22;11418;48.118;9.992;2023-07-20T17:55:16;23.20;98.40
22503;DHT22;11418;48.118;9.992;2023-07-20T17:59:17;22.80;99.30
22503;DHT22;11418;48.118;9.992;2023-07-20T18:03:18;22.90;98.00
22503;DHT22;11418;48.118;9.992;2023-07-20T18:07:18;22.80;96.90
22503;DHT22;11418;48.118;9.992;2023-07-20T18:11:19;22.60;99.70
22503;DHT22;11418;48.118;9.992;2023-07-20T18:15:19;22.30;99.60
22503;DHT22;11418;48.118;9.992;2023-07-20T18:19:20;22.00;99.30
22503;DHT22;11418;48.118;9.992;2023-07-20T18:23:20;21.60;99.90
22503;DHT22;11418;48.118;9.992;2023-07-20T18:27:21;21.30;99.90
22503;DHT22;11418;48.118;9.992;2023-07-20T18:31:21;21.10;99.90
22503;DHT22;11418;48.118;9.992;2023-07-20T18:35:22;21.10;99.90
22503;DHT22;11418;48.118;9.992;2023-07-20T18:39:22;21.10;99.90
22503;DHT22;11418;48.118;9.992;2023-07-20T18:43:23;21.00;99.90
22503;DHT22;11418;48.118;9.992;2023-07-20T18:47:24;20.60;99.90
22503;DHT22;11418;48.118;9.992;2023-07-20T18:51:24;20.10;99.90
22503;DHT22;11418;48.118;9.992;2023-07-20T18:55:25;19.80;99.90
22503;DHT22;11418;48.118;9.992;2023-07-20T18:59:26;19.60;99.90
22503;DHT22;11418;48.118;9.992;2023-07-20T19:03:27;19.30;99.90
22503;DHT22;11418;48.118;9.992;2023-07-20T19:07:27;19.00;99.90
22503;DHT22;11418;48.118;9.992;2023-07-20T19:11:28;18.60;99.90
22503;DHT22;11418;48.118;9.992;2023-07-20T19:15:28;18.40;99.90
22503;DHT22;11418;48.118;9.992;2023-07-20T19:19:29;18.50;99.90
22503;DHT22;11418;48.118;9.992;2023-07-20T19:23:31;18.20;99.90
22503;DHT22;11418;48.118;9.992;2023-07-20T19:27:32;18.00;99.90
22503;DHT22;11418;48.118;9.992;2023-07-20T19:31:34;17.80;99.90
22503;DHT22;11418;48.118;9.992;2023-07-20T19:35:34;17.60;99.90
22503;DHT22;11418;48.118;9.992;2023-07-20T19:39:36;17.50;99.90
22503;DHT22;11418;48.118;9.992;2023-07-20T19:43:37;17.70;99.90
22503;DHT22;11418;48.118;9.992;2023-07-20T19:47:37;17.70;99.90
22503;DHT22;11418;48.118;9.992;2023-07-20T19:51:38;17.60;99.90
22503;DHT22;11418;48.118;9.992;2023-07-20T19:55:38;17.50;99.90
22503;DHT22;11418;48.118;9.992;2023-07-20T19:59:39;17.30;99.90
22503;DHT22;11418;48.118;9.992;2023-07-20T20:03:39;17.20;99.90
22503;DHT22;11418;48.118;9.992;2023-07-20T20:07:40;17.20;99.90
22503;DHT22;11418;48.118;9.992;2023-07-20T20:11:40;17.10;99.90
22503;DHT22;11418;48.118;9.992;2023-07-20T20:15:42;17.10;99.90
22503;DHT22;11418;48.118;9.992;2023-07-20T20:19:42;16.80;99.90
22503;DHT22;11418;48.118;9.992;2023-07-20T20:23:43;16.90;99.90
22503;DHT22;11418;48.118;9.992;2023-07-20T20:27:44;16.70;99.90
22503;DHT22;11418;48.118;9.992;2023-07-20T20:31:45;16.40;99.90
22503;DHT22;11418;48.118;9.992;2023-07-20T20:35:49;16.30;99.90
22503;DHT22;11418;48.118;9.992;2023-07-20T20:39:53;16.20;99.90
22503;DHT22;11418;48.118;9.992;2023-07-20T20:43:53;16.00;99.90
22503;DHT22;11418;48.118;9.992;2023-07-20T20:47:54;16.00;99.90
22503;DHT22;11418;48.118;9.992;2023-07-20T20:52:05;15.80;99.90
22503;DHT22;11418;48.118;9.992;2023-07-20T20:56:06;15.70;99.90
22503;DHT22;11418;48.118;9.992;2023-07-20T21:00:06;15.60;99.90
22503;DHT22;11418;48.118;9.992;2023-07-20T21:04:09;15.50;99.90
22503;DHT22;11418;48.118;9.992;2023-07-20T21:08:10;15.50;99.90
22503;DHT22;11418;48.118;9.992;2023-07-20T21:12:10;15.50;99.90
22503;DHT22;11418;48.118;9.992;2023-07-20T21:16:11;15.60;99.90
22503;DHT22;11418;48.118;9.992;2023-07-20T21:20:11;15.40;99.90
22503;DHT22;11418;48.118;9.992;2023-07-20T21:24:12;15.30;99.90
22503;DHT22;11418;48.118;9.992;2023-07-20T21:28:12;15.10;99.90
22503;DHT22;11418;48.118;9.992;2023-07-20T21:32:13;14.90;99.90
22503;DHT22;11418;48.118;9.992;2023-07-20T21:36:14;14.90;99.90
22503;DHT22;11418;48.118;9.992;2023-07-20T21:40:14;14.70;99.90
22503;DHT22;11418;48.118;9.992;2023-07-20T21:44:15;14.60;99.90
22503;DHT22;11418;48.118;9.992;2023-07-20T21:48:16;14.60;99.90
22503;DHT22;11418;48.118;9.992;2023-07-20T21:52:16;14.90;99.90
22503;DHT22;11418;48.118;9.992;2023-07-20T21:56:17;14.90;99.90
22503;DHT22;11418;48.118;9.992;2023-07-20T22:00:18;14.70;99.90
22503;DHT22;11418;48.118;9.992;2023-07-20T22:04:19;14.50;99.90
22503;DHT22;11418;48.118;9.992;2023-07-20T22:08:20;14.10;99.90
22503;DHT22;11418;48.118;9.992;2023-07-20T22:12:20;13.90;99.90
22503;DHT22;11418;48.118;9.992;2023-07-20T22:16:21;13.80;99.90
22503;DHT22;11418;48.118;9.992;2023-07-20T22:20:21;13.80;99.90
22503;DHT22;11418;48.118;9.992;2023-07-20T22:24:22;13.70;99.90
22503;DHT22;11418;48.118;9.992;2023-07-20T22:28:23;13.70;99.90
22503;DHT22;11418;48.118;9.992;2023-07-20T22:32:23;13.60;99.90
22503;DHT22;11418;48.118;9.992;2023-07-20T22:36:24;13.60;99.90
22503;DHT22;11418;48.118;9.992;2023-07-20T22:40:24;13.70;99.90
22503;DHT22;11418;48.118;9.992;2023-07-20T22:44:25;13.60;99.90
22503;DHT22;11418;48.118;9.992;2023-07-20T22:48:25;13.70;99.90
22503;DHT22;11418;48.118;9.992;2023-07-20T22:52:28;13.60;99.90
22503;DHT22;11418;48.118;9.992;2023-07-20T22:56:28;13.60;99.90
22503;DHT22;11418;48.118;9.992;2023-07-20T23:00:29;13.40;99.90
22503;DHT22;11418;48.118;9.992;2023-07-20T23:04:31;13.20;99.90
22503;DHT22;11418;48.118;9.992;2023-07-20T23:08:32;13.10;99.90
22503;DHT22;11418;48.118;9.992;2023-07-20T23:12:33;13.00;99.90
22503;DHT22;11418;48.118;9.992;2023-07-20T23:16:34;12.80;99.90
22503;DHT22;11418;48.118;9.992;2023-07-20T23:20:34;12.60;99.90
22503;DHT22;11418;48.118;9.992;2023-07-20T23:24:35;12.60;99.90
22503;DHT22;11418;48.118;9.992;2023-07-20T23:28:35;12.40;99.90
22503;DHT22;11418;48.118;9.992;2023-07-20T23:32:36;12.40;99.90
22503;DHT22;11418;48.118;9.992;2023-07-20T23:36:36;12.40;99.90
22503;DHT22;11418;48.118;9.992;2023-07-20T23:40:37;12.40;99.90
22503;DHT22;11418;48.118;9.992;2023-07-20T23:44:39;12.50;99.90
22503;DHT22;11418;48.118;9.992;2023-07-20T23:48:40;12.30;99.90
22503;DHT22;11418;48.118;9.992;2023-07-20T23:52:41;12.30;99.90
22503;DHT22;11418;48.118;9.992;2023-07-20T23:56:41;12.10;99.90
